sensor_id;sensor_type;location;lat;lon;timestamp;P1;durP1;ratioP1;P2;durP2;ratioP2
7160;SDS011;3622;53.576;9.978;2023-04-19T00:00:43;8.00;;;6.40;;
7160;SDS011;3622;53.576;9.978;2023-04-19T00:03:09;10.13;;;6.37;;
7160;SDS011;3622;53.576;9.978;2023-04-19T00:05:35;13.37;;;6.70;;
7160;SDS011;3622;53.576;9.978;2023-04-19T00:08:02;7.83;;;5.53;;
7160;SDS011;3622;53.576;9.978;2023-04-19T00:10:28;9.47;;;6.50;;
7160;SDS011;3622;53.576;9.978;2023-04-19T00:12:54;8.13;;;6.00;;
7160;SDS011;3622;53.576;9.978;2023-04-19T00:15:20;8.70;;;6.50;;
7160;SDS011;3622;53.576;9.978;2023-04-19T00:17:46;9.33;;;5.70;;
7160;SDS011;3622;53.576;9.978;2023-04-19T00:20:12;9.50;;;6.20;;
7160;SDS011;3622;53.576;9.978;2023-04-19T00:22:38;9.77;;;5.87;;
7160;SDS011;3622;53.576;9.978;2023-04-19T00:25:05;10.03;;;6.23;;
7160;SDS011;3622;53.576;9.978;2023-04-19T00:27:31;10.27;;;6.20;;
7160;SDS011;3622;53.576;9.978;2023-04-19T00:29:57;8.37;;;5.93;;
7160;SDS011;3622;53.576;9.978;2023-04-19T00:32:23;15.33;;;6.80;;
7160;SDS011;3622;53.576;9.978;2023-04-19T00:34:49;12.23;;;6.20;;
7160;SDS011;3622;53.576;9.978;2023-04-19T00:37:15;13.50;;;5.90;;
7160;SDS011;3622;53.576;9.978;2023-04-19T00:39:41;8.50;;;5.90;;
7160;SDS011;3622;53.576;9.978;2023-04-19T00:42:07;8.37;;;6.23;;
7160;SDS011;3622;53.576;9.978;2023-04-19T00:44:33;8.03;;;5.07;;
7160;SDS011;3622;53.576;9.978;2023-04-19T00:46:59;7.73;;;5.50;;
7160;SDS011;3622;53.576;9.978;2023-04-19T00:49:25;10.20;;;5.67;;
7160;SDS011;3622;53.576;9.978;2023-04-19T00:51:51;6.10;;;4.90;;
7160;SDS011;3622;53.576;9.978;2023-04-19T00:54:17;9.60;;;5.10;;
7160;SDS011;3622;53.576;9.978;2023-04-19T00:56:44;7.73;;;5.17;;
7160;SDS011;3622;53.576;9.978;2023-04-19T00:59:10;9.80;;;4.90;;
7160;SDS011;3622;53.576;9.978;2023-04-19T01:01:37;9.03;;;5.27;;
7160;SDS011;3622;53.576;9.978;2023-04-19T01:04:03;7.50;;;5.07;;
7160;SDS011;3622;53.576;9.978;2023-04-19T01:06:30;8.37;;;4.87;;
7160;SDS011;3622;53.576;9.978;2023-04-19T01:08:56;5.40;;;4.13;;
7160;SDS011;3622;53.576;9.978;2023-04-19T01:11:23;9.10;;;4.90;;
7160;SDS011;3622;53.576;9.978;2023-04-19T01:13:49;6.53;;;5.10;;
7160;SDS011;3622;53.576;9.978;2023-04-19T01:16:15;10.47;;;4.40;;
7160;SDS011;3622;53.576;9.978;2023-04-19T01:18:41;9.90;;;5.10;;
7160;SDS011;3622;53.576;9.978;2023-04-19T01:21:07;5.07;;;4.57;;
7160;SDS011;3622;53.576;9.978;2023-04-19T01:23:34;4.40;;;4.03;;
7160;SDS011;3622;53.576;9.978;2023-04-19T01:26:00;8.30;;;3.90;;
7160;SDS011;3622;53.576;9.978;2023-04-19T01:28:26;5.90;;;4.00;;
7160;SDS011;3622;53.576;9.978;2023-04-19T01:30:52;7.07;;;4.10;;
7160;SDS011;3622;53.576;9.978;2023-04-19T01:33:19;5.47;;;3.73;;
7160;SDS011;3622;53.576;9.978;2023-04-19T01:35:46;6.73;;;3.80;;
7160;SDS011;3622;53.576;9.978;2023-04-19T01:38:12;6.30;;;4.40;;
7160;SDS011;3622;53.576;9.978;2023-04-19T01:40:38;4.10;;;3.70;;
7160;SDS011;3622;53.576;9.978;2023-04-19T01:43:05;7.53;;;3.90;;
7160;SDS011;3622;53.576;9.978;2023-04-19T01:45:31;5.23;;;3.60;;
7160;SDS011;3622;53.576;9.978;2023-04-19T01:47:58;4.60;;;3.60;;
7160;SDS011;3622;53.576;9.978;2023-04-19T01:50:25;3.70;;;3.40;;
7160;SDS011;3622;53.576;9.978;2023-04-19T01:52:51;4.90;;;3.63;;
7160;SDS011;3622;53.576;9.978;2023-04-19T01:55:17;5.20;;;3.80;;
7160;SDS011;3622;53.576;9.978;2023-04-19T01:57:43;4.43;;;4.03;;
7160;SDS011;3622;53.576;9.978;2023-04-19T02:00:09;5.83;;;3.60;;
7160;SDS011;3622;53.576;9.978;2023-04-19T02:02:36;8.00;;;4.23;;
7160;SDS011;3622;53.576;9.978;2023-04-19T02:05:02;3.83;;;3.53;;
7160;SDS011;3622;53.576;9.978;2023-04-19T02:07:28;4.30;;;3.93;;
7160;SDS011;3622;53.576;9.978;2023-04-19T02:09:54;4.00;;;3.60;;
7160;SDS011;3622;53.576;9.978;2023-04-19T02:12:23;4.63;;;3.87;;
7160;SDS011;3622;53.576;9.978;2023-04-19T02:14:49;6.83;;;3.93;;
7160;SDS011;3622;53.576;9.978;2023-04-19T02:17:15;8.80;;;4.33;;
7160;SDS011;3622;53.576;9.978;2023-04-19T02:19:41;5.70;;;4.13;;
7160;SDS011;3622;53.576;9.978;2023-04-19T02:22:07;9.13;;;3.80;;
7160;SDS011;3622;53.576;9.978;2023-04-19T02:24:33;9.07;;;4.00;;
7160;SDS011;3622;53.576;9.978;2023-04-19T02:26:59;5.90;;;3.77;;
7160;SDS011;3622;53.576;9.978;2023-04-19T02:29:25;4.20;;;3.80;;
7160;SDS011;3622;53.576;9.978;2023-04-19T02:31:52;6.93;;;4.03;;
7160;SDS011;3622;53.576;9.978;2023-04-19T02:34:17;5.63;;;3.77;;
7160;SDS011;3622;53.576;9.978;2023-04-19T02:36:43;4.83;;;3.97;;
7160;SDS011;3622;53.576;9.978;2023-04-19T02:39:09;6.40;;;3.90;;
7160;SDS011;3622;53.576;9.978;2023-04-19T02:41:36;6.33;;;4.10;;
7160;SDS011;3622;53.576;9.978;2023-04-19T02:44:02;4.33;;;3.70;;
7160;SDS011;3622;53.576;9.978;2023-04-19T02:46:28;5.17;;;3.70;;
7160;SDS011;3622;53.576;9.978;2023-04-19T02:48:54;4.07;;;3.67;;
7160;SDS011;3622;53.576;9.978;2023-04-19T02:51:19;3.53;;;3.23;;
7160;SDS011;3622;53.576;9.978;2023-04-19T02:53:45;7.37;;;4.77;;
7160;SDS011;3622;53.576;9.978;2023-04-19T02:56:11;9.13;;;4.80;;
7160;SDS011;3622;53.576;9.978;2023-04-19T02:58:37;6.33;;;4.10;;
7160;SDS011;3622;53.576;9.978;2023-04-19T03:01:03;6.20;;;3.90;;
7160;SDS011;3622;53.576;9.978;2023-04-19T03:03:29;4.13;;;3.77;;
7160;SDS011;3622;53.576;9.978;2023-04-19T03:05:56;3.80;;;3.43;;
7160;SDS011;3622;53.576;9.978;2023-04-19T03:08:22;5.77;;;4.10;;
7160;SDS011;3622;53.576;9.978;2023-04-19T03:10:48;7.70;;;3.80;;
7160;SDS011;3622;53.576;9.978;2023-04-19T03:13:14;5.57;;;3.90;;
7160;SDS011;3622;53.576;9.978;2023-04-19T03:15:39;8.37;;;4.07;;
7160;SDS011;3622;53.576;9.978;2023-04-19T03:18:05;5.10;;;4.60;;
7160;SDS011;3622;53.576;9.978;2023-04-19T03:20:31;6.83;;;4.03;;
7160;SDS011;3622;53.576;9.978;2023-04-19T03:22:58;6.40;;;3.40;;
7160;SDS011;3622;53.576;9.978;2023-04-19T03:25:24;5.50;;;4.23;;
7160;SDS011;3622;53.576;9.978;2023-04-19T03:27:50;5.63;;;3.60;;
7160;SDS011;3622;53.576;9.978;2023-04-19T03:30:16;4.73;;;3.80;;
7160;SDS011;3622;53.576;9.978;2023-04-19T03:32:42;4.27;;;3.87;;
7160;SDS011;3622;53.576;9.978;2023-04-19T03:35:08;7.50;;;4.00;;
7160;SDS011;3622;53.576;9.978;2023-04-19T03:37:34;8.33;;;3.63;;
7160;SDS011;3622;53.576;9.978;2023-04-19T03:40:00;5.37;;;4.37;;
7160;SDS011;3622;53.576;9.978;2023-04-19T03:42:26;4.37;;;3.90;;
7160;SDS011;3622;53.576;9.978;2023-04-19T03:44:52;11.03;;;4.03;;
7160;SDS011;3622;53.576;9.978;2023-04-19T03:47:19;4.70;;;3.80;;
7160;SDS011;3622;53.576;9.978;2023-04-19T03:49:44;4.30;;;3.90;;
7160;SDS011;3622;53.576;9.978;2023-04-19T03:52:10;4.13;;;3.60;;
7160;SDS011;3622;53.576;9.978;2023-04-19T03:54:36;9.23;;;4.10;;
7160;SDS011;3622;53.576;9.978;2023-04-19T03:57:02;6.87;;;4.23;;
7160;SDS011;3622;53.576;9.978;2023-04-19T03:59:28;5.23;;;3.53;;
7160;SDS011;3622;53.576;9.978;2023-04-19T04:01:54;5.07;;;3.90;;
7160;SDS011;3622;53.576;9.978;2023-04-19T04:04:20;4.40;;;4.00;;
7160;SDS011;3622;53.576;9.978;2023-04-19T04:06:46;5.00;;;3.93;;
7160;SDS011;3622;53.576;9.978;2023-04-19T04:09:12;5.23;;;4.73;;
7160;SDS011;3622;53.576;9.978;2023-04-19T04:11:38;6.23;;;3.90;;
7160;SDS011;3622;53.576;9.978;2023-04-19T04:14:04;4.67;;;3.83;;
7160;SDS011;3622;53.576;9.978;2023-04-19T04:16:30;4.20;;;3.80;;
7160;SDS011;3622;53.576;9.978;2023-04-19T04:18:56;7.03;;;4.40;;
7160;SDS011;3622;53.576;9.978;2023-04-19T04:21:22;8.47;;;3.70;;
7160;SDS011;3622;53.576;9.978;2023-04-19T04:23:48;5.97;;;3.90;;
7160;SDS011;3622;53.576;9.978;2023-04-19T04:26:15;5.93;;;4.57;;
7160;SDS011;3622;53.576;9.978;2023-04-19T04:28:41;5.83;;;4.50;;
7160;SDS011;3622;53.576;9.978;2023-04-19T04:31:07;6.10;;;4.17;;
7160;SDS011;3622;53.576;9.978;2023-04-19T04:33:33;6.07;;;3.83;;
7160;SDS011;3622;53.576;9.978;2023-04-19T04:36:00;4.90;;;3.90;;
7160;SDS011;3622;53.576;9.978;2023-04-19T04:38:26;14.83;;;4.73;;
7160;SDS011;3622;53.576;9.978;2023-04-19T04:40:53;13.10;;;5.70;;
7160;SDS011;3622;53.576;9.978;2023-04-19T04:43:19;4.90;;;4.40;;
7160;SDS011;3622;53.576;9.978;2023-04-19T04:45:46;9.00;;;4.53;;
7160;SDS011;3622;53.576;9.978;2023-04-19T04:48:12;5.63;;;4.13;;
7160;SDS011;3622;53.576;9.978;2023-04-19T04:50:37;4.13;;;3.73;;
7160;SDS011;3622;53.576;9.978;2023-04-19T04:53:03;9.90;;;5.63;;
7160;SDS011;3622;53.576;9.978;2023-04-19T04:55:29;5.80;;;4.73;;
7160;SDS011;3622;53.576;9.978;2023-04-19T04:57:55;6.73;;;4.73;;
7160;SDS011;3622;53.576;9.978;2023-04-19T05:00:22;5.07;;;3.27;;
7160;SDS011;3622;53.576;9.978;2023-04-19T05:02:48;5.30;;;3.93;;
7160;SDS011;3622;53.576;9.978;2023-04-19T05:05:14;4.30;;;3.30;;
7160;SDS011;3622;53.576;9.978;2023-04-19T05:07:40;3.93;;;3.60;;
7160;SDS011;3622;53.576;9.978;2023-04-19T05:10:06;3.33;;;3.13;;
7160;SDS011;3622;53.576;9.978;2023-04-19T05:12:32;3.30;;;3.00;;
7160;SDS011;3622;53.576;9.978;2023-04-19T05:14:58;3.27;;;2.73;;
7160;SDS011;3622;53.576;9.978;2023-04-19T05:17:24;4.77;;;3.23;;
7160;SDS011;3622;53.576;9.978;2023-04-19T05:19:50;2.77;;;2.57;;
7160;SDS011;3622;53.576;9.978;2023-04-19T05:22:16;2.93;;;2.70;;
7160;SDS011;3622;53.576;9.978;2023-04-19T05:24:42;3.23;;;2.93;;
7160;SDS011;3622;53.576;9.978;2023-04-19T05:27:09;4.53;;;3.20;;
7160;SDS011;3622;53.576;9.978;2023-04-19T05:29:38;5.60;;;2.87;;
7160;SDS011;3622;53.576;9.978;2023-04-19T05:32:04;4.43;;;3.60;;
7160;SDS011;3622;53.576;9.978;2023-04-19T05:34:31;4.57;;;2.70;;
7160;SDS011;3622;53.576;9.978;2023-04-19T05:36:57;5.43;;;3.10;;
7160;SDS011;3622;53.576;9.978;2023-04-19T05:39:23;4.07;;;2.73;;
7160;SDS011;3622;53.576;9.978;2023-04-19T05:41:49;3.20;;;2.90;;
7160;SDS011;3622;53.576;9.978;2023-04-19T05:44:15;3.20;;;2.90;;
7160;SDS011;3622;53.576;9.978;2023-04-19T05:46:41;12.27;;;3.90;;
7160;SDS011;3622;53.576;9.978;2023-04-19T05:49:07;6.00;;;2.37;;
7160;SDS011;3622;53.576;9.978;2023-04-19T05:51:33;3.77;;;2.27;;
7160;SDS011;3622;53.576;9.978;2023-04-19T05:53:59;6.43;;;3.30;;
7160;SDS011;3622;53.576;9.978;2023-04-19T05:56:25;2.30;;;1.80;;
7160;SDS011;3622;53.576;9.978;2023-04-19T05:58:51;2.27;;;2.17;;
7160;SDS011;3622;53.576;9.978;2023-04-19T06:01:20;3.07;;;1.93;;
7160;SDS011;3622;53.576;9.978;2023-04-19T06:03:46;2.20;;;2.00;;
7160;SDS011;3622;53.576;9.978;2023-04-19T06:06:16;3.10;;;1.63;;
7160;SDS011;3622;53.576;9.978;2023-04-19T06:08:42;5.13;;;3.23;;
7160;SDS011;3622;53.576;9.978;2023-04-19T06:11:08;3.30;;;2.43;;
7160;SDS011;3622;53.576;9.978;2023-04-19T06:13:34;13.43;;;4.40;;
7160;SDS011;3622;53.576;9.978;2023-04-19T06:16:01;3.80;;;2.00;;
7160;SDS011;3622;53.576;9.978;2023-04-19T06:18:27;21.20;;;2.77;;
7160;SDS011;3622;53.576;9.978;2023-04-19T06:20:53;6.47;;;2.27;;
7160;SDS011;3622;53.576;9.978;2023-04-19T06:23:19;7.73;;;2.97;;
7160;SDS011;3622;53.576;9.978;2023-04-19T06:25:45;5.90;;;2.10;;
7160;SDS011;3622;53.576;9.978;2023-04-19T06:28:14;2.63;;;1.63;;
7160;SDS011;3622;53.576;9.978;2023-04-19T06:30:40;2.97;;;2.00;;
7160;SDS011;3622;53.576;9.978;2023-04-19T06:33:06;7.83;;;2.47;;
7160;SDS011;3622;53.576;9.978;2023-04-19T06:35:32;6.40;;;2.07;;
7160;SDS011;3622;53.576;9.978;2023-04-19T06:37:58;8.37;;;2.57;;
7160;SDS011;3622;53.576;9.978;2023-04-19T06:40:24;4.40;;;1.87;;
7160;SDS011;3622;53.576;9.978;2023-04-19T06:42:51;7.43;;;2.03;;
7160;SDS011;3622;53.576;9.978;2023-04-19T06:45:17;9.80;;;2.57;;
7160;SDS011;3622;53.576;9.978;2023-04-19T06:47:43;12.37;;;3.53;;
7160;SDS011;3622;53.576;9.978;2023-04-19T06:50:09;5.20;;;1.80;;
7160;SDS011;3622;53.576;9.978;2023-04-19T06:52:35;8.20;;;2.23;;
7160;SDS011;3622;53.576;9.978;2023-04-19T06:55:01;15.27;;;3.03;;
7160;SDS011;3622;53.576;9.978;2023-04-19T06:57:27;10.87;;;2.70;;
7160;SDS011;3622;53.576;9.978;2023-04-19T06:59:54;12.93;;;2.93;;
7160;SDS011;3622;53.576;9.978;2023-04-19T07:02:20;7.33;;;2.03;;
7160;SDS011;3622;53.576;9.978;2023-04-19T07:04:46;9.93;;;2.77;;
7160;SDS011;3622;53.576;9.978;2023-04-19T07:07:12;8.33;;;2.40;;
7160;SDS011;3622;53.576;9.978;2023-04-19T07:09:38;5.27;;;1.37;;
7160;SDS011;3622;53.576;9.978;2023-04-19T07:12:04;2.77;;;1.20;;
7160;SDS011;3622;53.576;9.978;2023-04-19T07:14:30;2.37;;;1.03;;
7160;SDS011;3622;53.576;9.978;2023-04-19T07:16:56;5.50;;;1.90;;
7160;SDS011;3622;53.576;9.978;2023-04-19T07:19:22;1.73;;;0.97;;
7160;SDS011;3622;53.576;9.978;2023-04-19T07:21:49;2.00;;;1.13;;
7160;SDS011;3622;53.576;9.978;2023-04-19T07:24:15;4.40;;;1.40;;
7160;SDS011;3622;53.576;9.978;2023-04-19T07:26:41;3.13;;;1.30;;
7160;SDS011;3622;53.576;9.978;2023-04-19T07:29:07;4.33;;;1.13;;
7160;SDS011;3622;53.576;9.978;2023-04-19T07:31:33;3.53;;;1.20;;
7160;SDS011;3622;53.576;9.978;2023-04-19T07:33:59;4.37;;;1.80;;
7160;SDS011;3622;53.576;9.978;2023-04-19T07:36:25;3.97;;;1.33;;
7160;SDS011;3622;53.576;9.978;2023-04-19T07:38:51;12.77;;;3.20;;
7160;SDS011;3622;53.576;9.978;2023-04-19T07:41:17;4.57;;;1.33;;
7160;SDS011;3622;53.576;9.978;2023-04-19T07:43:43;6.67;;;1.17;;
7160;SDS011;3622;53.576;9.978;2023-04-19T07:46:10;4.87;;;1.50;;
7160;SDS011;3622;53.576;9.978;2023-04-19T07:48:36;7.27;;;1.70;;
7160;SDS011;3622;53.576;9.978;2023-04-19T07:51:12;6.00;;;1.50;;
7160;SDS011;3622;53.576;9.978;2023-04-19T07:53:39;9.70;;;2.30;;
7160;SDS011;3622;53.576;9.978;2023-04-19T07:56:09;2.23;;;1.33;;
7160;SDS011;3622;53.576;9.978;2023-04-19T07:58:35;18.30;;;2.73;;
7160;SDS011;3622;53.576;9.978;2023-04-19T08:01:02;6.20;;;1.80;;
7160;SDS011;3622;53.576;9.978;2023-04-19T08:03:28;2.20;;;1.40;;
7160;SDS011;3622;53.576;9.978;2023-04-19T08:05:54;7.90;;;1.87;;
7160;SDS011;3622;53.576;9.978;2023-04-19T08:08:20;5.67;;;1.43;;
7160;SDS011;3622;53.576;9.978;2023-04-19T08:10:46;14.37;;;3.37;;
7160;SDS011;3622;53.576;9.978;2023-04-19T08:13:12;5.83;;;1.23;;
7160;SDS011;3622;53.576;9.978;2023-04-19T08:15:38;4.47;;;1.40;;
7160;SDS011;3622;53.576;9.978;2023-04-19T08:18:05;9.30;;;1.40;;
7160;SDS011;3622;53.576;9.978;2023-04-19T08:20:31;1.77;;;1.33;;
7160;SDS011;3622;53.576;9.978;2023-04-19T08:23:00;1.40;;;0.90;;
7160;SDS011;3622;53.576;9.978;2023-04-19T08:25:26;3.37;;;1.87;;
7160;SDS011;3622;53.576;9.978;2023-04-19T08:27:55;1.97;;;1.03;;
7160;SDS011;3622;53.576;9.978;2023-04-19T08:30:22;3.70;;;1.37;;
7160;SDS011;3622;53.576;9.978;2023-04-19T08:32:48;1.53;;;1.07;;
7160;SDS011;3622;53.576;9.978;2023-04-19T08:35:15;1.53;;;1.20;;
7160;SDS011;3622;53.576;9.978;2023-04-19T08:37:41;1.90;;;1.67;;
7160;SDS011;3622;53.576;9.978;2023-04-19T08:40:07;3.30;;;1.30;;
7160;SDS011;3622;53.576;9.978;2023-04-19T08:42:34;3.97;;;1.20;;
7160;SDS011;3622;53.576;9.978;2023-04-19T08:45:00;7.57;;;2.13;;
7160;SDS011;3622;53.576;9.978;2023-04-19T08:47:33;7.50;;;1.90;;
7160;SDS011;3622;53.576;9.978;2023-04-19T08:50:00;8.97;;;2.30;;
7160;SDS011;3622;53.576;9.978;2023-04-19T08:52:26;4.23;;;1.47;;
7160;SDS011;3622;53.576;9.978;2023-04-19T08:54:55;9.07;;;1.57;;
7160;SDS011;3622;53.576;9.978;2023-04-19T08:57:21;3.67;;;1.27;;
7160;SDS011;3622;53.576;9.978;2023-04-19T08:59:47;2.70;;;1.37;;
7160;SDS011;3622;53.576;9.978;2023-04-19T09:02:19;4.73;;;1.80;;
7160;SDS011;3622;53.576;9.978;2023-04-19T09:04:45;4.20;;;1.20;;
7160;SDS011;3622;53.576;9.978;2023-04-19T09:07:24;3.07;;;1.50;;
7160;SDS011;3622;53.576;9.978;2023-04-19T09:10:06;2.00;;;1.33;;
7160;SDS011;3622;53.576;9.978;2023-04-19T09:12:33;1.60;;;1.30;;
7160;SDS011;3622;53.576;9.978;2023-04-19T09:14:59;3.20;;;1.60;;
7160;SDS011;3622;53.576;9.978;2023-04-19T09:17:25;1.43;;;1.20;;
7160;SDS011;3622;53.576;9.978;2023-04-19T09:19:51;5.63;;;2.07;;
7160;SDS011;3622;53.576;9.978;2023-04-19T09:22:17;3.80;;;1.70;;
7160;SDS011;3622;53.576;9.978;2023-04-19T09:24:43;3.93;;;1.90;;
7160;SDS011;3622;53.576;9.978;2023-04-19T09:27:09;2.13;;;1.67;;
7160;SDS011;3622;53.576;9.978;2023-04-19T09:29:39;6.40;;;1.40;;
7160;SDS011;3622;53.576;9.978;2023-04-19T09:32:04;2.30;;;2.00;;
7160;SDS011;3622;53.576;9.978;2023-04-19T09:34:30;1.20;;;1.10;;
7160;SDS011;3622;53.576;9.978;2023-04-19T09:36:56;2.10;;;1.77;;
7160;SDS011;3622;53.576;9.978;2023-04-19T09:39:32;1.83;;;1.73;;
7160;SDS011;3622;53.576;9.978;2023-04-19T09:42:00;3.00;;;1.63;;
7160;SDS011;3622;53.576;9.978;2023-04-19T09:44:27;1.93;;;1.63;;
7160;SDS011;3622;53.576;9.978;2023-04-19T09:46:53;1.80;;;1.63;;
7160;SDS011;3622;53.576;9.978;2023-04-19T09:49:20;1.50;;;1.37;;
7160;SDS011;3622;53.576;9.978;2023-04-19T09:51:53;1.43;;;1.33;;
7160;SDS011;3622;53.576;9.978;2023-04-19T09:54:20;2.33;;;2.13;;
7160;SDS011;3622;53.576;9.978;2023-04-19T09:56:47;1.73;;;1.63;;
7160;SDS011;3622;53.576;9.978;2023-04-19T09:59:13;4.13;;;1.90;;
7160;SDS011;3622;53.576;9.978;2023-04-19T10:01:41;2.33;;;2.10;;
7160;SDS011;3622;53.576;9.978;2023-04-19T10:04:09;3.83;;;2.40;;
7160;SDS011;3622;53.576;9.978;2023-04-19T10:06:35;1.90;;;1.80;;
7160;SDS011;3622;53.576;9.978;2023-04-19T10:09:02;3.97;;;2.80;;
7160;SDS011;3622;53.576;9.978;2023-04-19T10:11:34;2.63;;;2.43;;
7160;SDS011;3622;53.576;9.978;2023-04-19T10:14:06;1.90;;;1.80;;
7160;SDS011;3622;53.576;9.978;2023-04-19T10:16:33;3.00;;;1.90;;
7160;SDS011;3622;53.576;9.978;2023-04-19T10:19:04;3.33;;;2.20;;
7160;SDS011;3622;53.576;9.978;2023-04-19T10:21:31;2.20;;;2.10;;
7160;SDS011;3622;53.576;9.978;2023-04-19T10:23:57;2.17;;;2.07;;
7160;SDS011;3622;53.576;9.978;2023-04-19T10:26:23;2.40;;;2.20;;
7160;SDS011;3622;53.576;9.978;2023-04-19T10:28:49;2.87;;;2.00;;
7160;SDS011;3622;53.576;9.978;2023-04-19T10:31:16;2.40;;;1.70;;
7160;SDS011;3622;53.576;9.978;2023-04-19T10:33:47;2.20;;;2.00;;
7160;SDS011;3622;53.576;9.978;2023-04-19T10:36:14;5.63;;;2.40;;
7160;SDS011;3622;53.576;9.978;2023-04-19T10:41:16;1.80;;;1.70;;
7160;SDS011;3622;53.576;9.978;2023-04-19T10:48:53;6.03;;;2.10;;
7160;SDS011;3622;53.576;9.978;2023-04-19T10:51:20;2.97;;;2.20;;
7160;SDS011;3622;53.576;9.978;2023-04-19T10:56:13;4.97;;;2.47;;
7160;SDS011;3622;53.576;9.978;2023-04-19T11:04:11;1.70;;;1.60;;
7160;SDS011;3622;53.576;9.978;2023-04-19T11:09:25;4.70;;;2.20;;
7160;SDS011;3622;53.576;9.978;2023-04-19T11:11:52;3.40;;;2.27;;
7160;SDS011;3622;53.576;9.978;2023-04-19T11:14:21;2.50;;;2.27;;
7160;SDS011;3622;53.576;9.978;2023-04-19T11:16:47;5.00;;;2.27;;
7160;SDS011;3622;53.576;9.978;2023-04-19T11:19:16;4.10;;;2.97;;
7160;SDS011;3622;53.576;9.978;2023-04-19T11:21:46;2.30;;;2.20;;
7160;SDS011;3622;53.576;9.978;2023-04-19T11:24:12;3.53;;;1.87;;
7160;SDS011;3622;53.576;9.978;2023-04-19T11:26:41;2.50;;;2.40;;
7160;SDS011;3622;53.576;9.978;2023-04-19T11:29:08;2.10;;;2.00;;
7160;SDS011;3622;53.576;9.978;2023-04-19T11:31:34;2.20;;;2.00;;
7160;SDS011;3622;53.576;9.978;2023-04-19T11:34:03;12.13;;;2.53;;
7160;SDS011;3622;53.576;9.978;2023-04-19T11:36:30;1.80;;;1.70;;
7160;SDS011;3622;53.576;9.978;2023-04-19T11:38:56;6.53;;;1.70;;
7160;SDS011;3622;53.576;9.978;2023-04-19T11:41:22;1.90;;;1.80;;
7160;SDS011;3622;53.576;9.978;2023-04-19T11:43:48;3.63;;;2.00;;
7160;SDS011;3622;53.576;9.978;2023-04-19T11:46:14;1.70;;;1.60;;
7160;SDS011;3622;53.576;9.978;2023-04-19T11:48:53;2.30;;;2.20;;
7160;SDS011;3622;53.576;9.978;2023-04-19T11:51:19;2.30;;;2.10;;
7160;SDS011;3622;53.576;9.978;2023-04-19T11:53:45;2.13;;;1.93;;
7160;SDS011;3622;53.576;9.978;2023-04-19T11:56:11;4.13;;;1.93;;
7160;SDS011;3622;53.576;9.978;2023-04-19T11:58:43;2.60;;;2.00;;
7160;SDS011;3622;53.576;9.978;2023-04-19T12:01:10;4.43;;;2.30;;
7160;SDS011;3622;53.576;9.978;2023-04-19T12:03:40;2.80;;;2.47;;
7160;SDS011;3622;53.576;9.978;2023-04-19T12:06:09;1.87;;;1.77;;
7160;SDS011;3622;53.576;9.978;2023-04-19T12:08:36;2.97;;;1.83;;
7160;SDS011;3622;53.576;9.978;2023-04-19T12:11:02;2.10;;;2.00;;
7160;SDS011;3622;53.576;9.978;2023-04-19T12:13:29;4.87;;;3.00;;
7160;SDS011;3622;53.576;9.978;2023-04-19T12:15:55;2.67;;;2.10;;
7160;SDS011;3622;53.576;9.978;2023-04-19T12:18:21;1.57;;;1.47;;
7160;SDS011;3622;53.576;9.978;2023-04-19T12:20:48;2.67;;;2.40;;
7160;SDS011;3622;53.576;9.978;2023-04-19T12:23:15;1.90;;;1.70;;
7160;SDS011;3622;53.576;9.978;2023-04-19T12:25:43;2.10;;;1.90;;
7160;SDS011;3622;53.576;9.978;2023-04-19T12:28:10;2.03;;;1.93;;
7160;SDS011;3622;53.576;9.978;2023-04-19T12:30:37;1.67;;;1.57;;
7160;SDS011;3622;53.576;9.978;2023-04-19T12:33:03;1.93;;;1.77;;
7160;SDS011;3622;53.576;9.978;2023-04-19T12:35:29;1.87;;;1.73;;
7160;SDS011;3622;53.576;9.978;2023-04-19T12:37:56;2.27;;;1.80;;
7160;SDS011;3622;53.576;9.978;2023-04-19T12:40:22;1.60;;;1.50;;
7160;SDS011;3622;53.576;9.978;2023-04-19T12:42:48;3.20;;;1.90;;
7160;SDS011;3622;53.576;9.978;2023-04-19T12:45:14;2.77;;;1.47;;
7160;SDS011;3622;53.576;9.978;2023-04-19T12:47:41;2.27;;;1.80;;
7160;SDS011;3622;53.576;9.978;2023-04-19T12:50:08;1.73;;;1.63;;
7160;SDS011;3622;53.576;9.978;2023-04-19T12:52:34;1.90;;;1.80;;
7160;SDS011;3622;53.576;9.978;2023-04-19T12:55:00;1.90;;;1.80;;
7160;SDS011;3622;53.576;9.978;2023-04-19T12:57:26;2.60;;;1.60;;
7160;SDS011;3622;53.576;9.978;2023-04-19T12:59:52;4.47;;;2.20;;
7160;SDS011;3622;53.576;9.978;2023-04-19T13:02:18;2.20;;;2.00;;
7160;SDS011;3622;53.576;9.978;2023-04-19T13:04:44;2.90;;;1.80;;
7160;SDS011;3622;53.576;9.978;2023-04-19T13:07:10;1.70;;;1.60;;
7160;SDS011;3622;53.576;9.978;2023-04-19T13:09:36;4.90;;;1.63;;
7160;SDS011;3622;53.576;9.978;2023-04-19T13:12:03;2.00;;;1.43;;
7160;SDS011;3622;53.576;9.978;2023-04-19T13:14:29;2.17;;;2.03;;
7160;SDS011;3622;53.576;9.978;2023-04-19T13:16:55;2.60;;;1.87;;
7160;SDS011;3622;53.576;9.978;2023-04-19T13:19:21;3.60;;;1.63;;
7160;SDS011;3622;53.576;9.978;2023-04-19T13:21:47;4.93;;;1.87;;
7160;SDS011;3622;53.576;9.978;2023-04-19T13:24:13;2.00;;;1.90;;
7160;SDS011;3622;53.576;9.978;2023-04-19T13:26:39;3.43;;;2.00;;
7160;SDS011;3622;53.576;9.978;2023-04-19T13:29:05;1.30;;;1.10;;
7160;SDS011;3622;53.576;9.978;2023-04-19T13:31:34;1.47;;;1.33;;
7160;SDS011;3622;53.576;9.978;2023-04-19T13:34:00;2.00;;;1.90;;
7160;SDS011;3622;53.576;9.978;2023-04-19T13:36:26;1.93;;;1.57;;
7160;SDS011;3622;53.576;9.978;2023-04-19T13:38:52;2.60;;;2.07;;
7160;SDS011;3622;53.576;9.978;2023-04-19T13:41:19;2.03;;;1.93;;
7160;SDS011;3622;53.576;9.978;2023-04-19T13:43:45;4.20;;;1.93;;
7160;SDS011;3622;53.576;9.978;2023-04-19T13:46:11;1.83;;;1.73;;
7160;SDS011;3622;53.576;9.978;2023-04-19T13:48:37;1.80;;;1.70;;
7160;SDS011;3622;53.576;9.978;2023-04-19T13:51:03;3.83;;;1.57;;
7160;SDS011;3622;53.576;9.978;2023-04-19T13:53:29;1.73;;;1.63;;
7160;SDS011;3622;53.576;9.978;2023-04-19T13:55:55;2.40;;;1.73;;
7160;SDS011;3622;53.576;9.978;2023-04-19T13:58:21;6.00;;;1.90;;
7160;SDS011;3622;53.576;9.978;2023-04-19T14:00:48;1.80;;;1.70;;
7160;SDS011;3622;53.576;9.978;2023-04-19T14:03:14;2.00;;;1.87;;
7160;SDS011;3622;53.576;9.978;2023-04-19T14:05:40;3.83;;;1.83;;
7160;SDS011;3622;53.576;9.978;2023-04-19T14:08:06;2.30;;;2.10;;
7160;SDS011;3622;53.576;9.978;2023-04-19T14:10:33;3.83;;;1.87;;
7160;SDS011;3622;53.576;9.978;2023-04-19T14:12:59;4.80;;;1.63;;
7160;SDS011;3622;53.576;9.978;2023-04-19T14:15:25;1.83;;;1.73;;
7160;SDS011;3622;53.576;9.978;2023-04-19T14:17:51;6.90;;;2.10;;
7160;SDS011;3622;53.576;9.978;2023-04-19T14:20:17;2.60;;;1.53;;
7160;SDS011;3622;53.576;9.978;2023-04-19T14:22:43;1.50;;;1.40;;
7160;SDS011;3622;53.576;9.978;2023-04-19T14:25:10;2.53;;;2.00;;
7160;SDS011;3622;53.576;9.978;2023-04-19T14:27:36;3.73;;;2.07;;
7160;SDS011;3622;53.576;9.978;2023-04-19T14:30:03;4.10;;;1.90;;
7160;SDS011;3622;53.576;9.978;2023-04-19T14:32:29;2.40;;;1.60;;
7160;SDS011;3622;53.576;9.978;2023-04-19T14:34:55;1.97;;;1.80;;
7160;SDS011;3622;53.576;9.978;2023-04-19T14:37:22;2.90;;;1.93;;
7160;SDS011;3622;53.576;9.978;2023-04-19T14:39:48;1.73;;;1.63;;
7160;SDS011;3622;53.576;9.978;2023-04-19T14:42:14;1.97;;;1.87;;
7160;SDS011;3622;53.576;9.978;2023-04-19T14:44:40;4.13;;;1.80;;
7160;SDS011;3622;53.576;9.978;2023-04-19T14:47:06;2.77;;;1.80;;
7160;SDS011;3622;53.576;9.978;2023-04-19T14:49:32;2.63;;;2.10;;
7160;SDS011;3622;53.576;9.978;2023-04-19T14:51:58;2.80;;;1.90;;
7160;SDS011;3622;53.576;9.978;2023-04-19T14:54:24;1.83;;;1.57;;
7160;SDS011;3622;53.576;9.978;2023-04-19T14:56:50;3.07;;;1.90;;
7160;SDS011;3622;53.576;9.978;2023-04-19T14:59:16;1.27;;;1.17;;
7160;SDS011;3622;53.576;9.978;2023-04-19T15:01:42;3.80;;;1.50;;
7160;SDS011;3622;53.576;9.978;2023-04-19T15:04:08;3.17;;;1.63;;
7160;SDS011;3622;53.576;9.978;2023-04-19T15:06:34;2.27;;;2.07;;
7160;SDS011;3622;53.576;9.978;2023-04-19T15:09:01;1.87;;;1.27;;
7160;SDS011;3622;53.576;9.978;2023-04-19T15:11:26;1.20;;;1.10;;
7160;SDS011;3622;53.576;9.978;2023-04-19T15:13:52;3.07;;;1.97;;
7160;SDS011;3622;53.576;9.978;2023-04-19T15:16:18;1.93;;;1.17;;
7160;SDS011;3622;53.576;9.978;2023-04-19T15:18:44;3.10;;;1.57;;
7160;SDS011;3622;53.576;9.978;2023-04-19T15:21:10;2.20;;;1.33;;
7160;SDS011;3622;53.576;9.978;2023-04-19T15:23:36;1.30;;;1.13;;
7160;SDS011;3622;53.576;9.978;2023-04-19T15:26:02;1.90;;;1.80;;
7160;SDS011;3622;53.576;9.978;2023-04-19T15:28:28;1.30;;;1.20;;